Terminal Aerodrome Forecast
Issued by NWS Cleveland, OH

Home | Current Version | Previous Version | Graphics & Text | Print | Product List | Glossary On
Versions: 1 2 3 4 5 6 7 8 9 10 11 12 13 14 15 16 17 18 19 20
000
FTUS41 KCLE 290500
TAFERI
TAF
KERI 290540Z 2906/3006 VRB03KT P6SM BKN250
      TEMPO 2909/2913 4SM BR
     FM291500 32005KT P6SM SCT250
     FM292300 22003KT P6SM SCT250=

USA.gov is the U.S. government's official web portal to all federal, state and local government web resources and services.